PWSweather.com
Personal Weather Stations
Station Observations
PUKANEC
Pukanec, PukanecSK 93505

PukanecPukanecSK 93505

Lat: 48.343102, Lon: 18.709703

Elevation: 1263

Station Type: MeteoHelix Pro IoT

https://emeteo.sk/@pukanec

Latest ConditionsUpdated 9:50:13 PM GMT+01:01 Monday, Sep 23, 2019
Currently Today's Max Today's Min Today's Average
Temperature 55.6°F13.1°C 59.5°F15.3°C 52.9°F11.6°C 56.3°F13.5°C
Dew Point 50.0°F10.0°C 51.0°F10.6°C 38.0°F3.3°C 46.1°F7.8°C
Winds - N N - - - - -
Wind Gusts -- -- - -
Humidity 82% 86% 44% 70%
Pressure 29.98 in1015.2 mb 30.00 in1015.9 mb 29.96 in1014.6 mb -
Precipitation - 0.05 in1.3 mm - -
Hour Temp Dew Point Humidity Winds Wind Gusts Pressure Precip Precip Rate Daily Precip Total
09:50 PM 55.6°F13.1°C 50.0°F10.0°C 82% - N N -- 29.98 in1015.2 mb 0.00 in0.0 mm 0.00 in0.0 mm 0.05 in1.3 mm
09:40 PM 55.6°F13.1°C 50.0°F10.0°C 83% - N N -- 29.98 in1015.2 mb 0.00 in0.0 mm 0.00 in0.0 mm 0.05 in1.3 mm
09:30 PM 55.6°F13.1°C 51.0°F10.6°C 83% - N N -- 29.98 in1015.2 mb 0.00 in0.0 mm 0.00 in0.0 mm 0.05 in1.3 mm
09:20 PM 55.4°F13.0°C 51.0°F10.6°C 84% - N N -- 29.98 in1015.2 mb 0.00 in0.0 mm 0.00 in0.0 mm 0.05 in1.3 mm
09:10 PM 55.2°F12.9°C 51.0°F10.6°C 84% - N N -- 29.98 in1015.2 mb 0.00 in0.0 mm 0.00 in0.0 mm 0.05 in1.3 mm
09:00 PM 55.0°F12.8°C 51.0°F10.6°C 85% - N N -- 29.99 in1015.6 mb 0.00 in0.0 mm 0.00 in0.0 mm 0.05 in1.3 mm
08:50 PM 55.0°F12.8°C 51.0°F10.6°C 85% - N N -- 29.99 in1015.6 mb 0.00 in0.0 mm 0.00 in0.0 mm 0.05 in1.3 mm
08:40 PM 55.0°F12.8°C 51.0°F10.6°C 86% - N N -- 29.99 in1015.6 mb 0.00 in0.0 mm 0.00 in0.0 mm 0.05 in1.3 mm
08:30 PM 55.0°F12.8°C 51.0°F10.6°C 86% - N N -- 29.99 in1015.6 mb 0.00 in0.0 mm 0.00 in0.0 mm 0.05 in1.3 mm
08:20 PM 55.0°F12.8°C 51.0°F10.6°C 86% - N N -- 29.98 in1015.2 mb 0.00 in0.0 mm 0.00 in0.0 mm 0.05 in1.3 mm
08:10 PM 55.0°F12.8°C 51.0°F10.6°C 86% - N N -- 29.98 in1015.2 mb 0.00 in0.0 mm 0.00 in0.0 mm 0.05 in1.3 mm
08:00 PM 54.9°F12.7°C 51.0°F10.6°C 86% - N N -- 29.99 in1015.6 mb 0.00 in0.0 mm 0.00 in0.0 mm 0.05 in1.3 mm
07:50 PM 54.9°F12.7°C 51.0°F10.6°C 86% - N N -- 29.98 in1015.2 mb 0.00 in0.0 mm 0.00 in0.0 mm 0.05 in1.3 mm
07:40 PM 54.9°F12.7°C 51.0°F10.6°C 86% - N N -- 29.98 in1015.2 mb 0.00 in0.0 mm 0.00 in0.0 mm 0.05 in1.3 mm
07:30 PM 54.9°F12.7°C 51.0°F10.6°C 86% - N N -- 29.98 in1015.2 mb 0.00 in0.0 mm 0.00 in0.0 mm 0.05 in1.3 mm
07:20 PM 54.7°F12.6°C 51.0°F10.6°C 86% - N N -- 29.98 in1015.2 mb 0.00 in0.0 mm 0.00 in0.0 mm 0.05 in1.3 mm
07:10 PM 54.7°F12.6°C 51.0°F10.6°C 86% - N N -- 29.98 in1015.2 mb 0.00 in0.0 mm 0.00 in0.0 mm 0.05 in1.3 mm
07:00 PM 54.7°F12.6°C 51.0°F10.6°C 86% - N N -- 29.98 in1015.2 mb 0.00 in0.0 mm 0.00 in0.0 mm 0.05 in1.3 mm
06:50 PM 54.9°F12.7°C 51.0°F10.6°C 86% - N N -- 29.97 in1014.9 mb 0.01 in0.3 mm 0.00 in0.0 mm 0.05 in1.3 mm
06:40 PM 54.9°F12.7°C 51.0°F10.6°C 86% - N N -- 29.97 in1014.9 mb 0.01 in0.3 mm 0.00 in0.0 mm 0.05 in1.3 mm
06:30 PM 54.9°F12.7°C 51.0°F10.6°C 86% - N N -- 29.97 in1014.9 mb 0.02 in0.5 mm 0.00 in0.0 mm 0.05 in1.3 mm
06:20 PM 54.7°F12.6°C 51.0°F10.6°C 86% - N N -- 29.97 in1014.9 mb 0.02 in0.5 mm 0.00 in0.0 mm 0.05 in1.3 mm
06:10 PM 54.7°F12.6°C 50.0°F10.0°C 86% - N N -- 29.97 in1014.9 mb 0.02 in0.5 mm 0.00 in0.0 mm 0.05 in1.3 mm
06:00 PM 54.9°F12.7°C 51.0°F10.6°C 85% - N N -- 29.97 in1014.9 mb 0.02 in0.5 mm 0.01 in0.3 mm 0.05 in1.3 mm
05:50 PM 55.0°F12.8°C 51.0°F10.6°C 85% - N N -- 29.97 in1014.9 mb 0.01 in0.3 mm 0.00 in0.0 mm 0.04 in1.0 mm
05:40 PM 55.0°F12.8°C 50.0°F10.0°C 84% - N N -- 29.97 in1014.9 mb 0.01 in0.3 mm 0.06 in1.5 mm 0.04 in1.0 mm
05:30 PM 55.2°F12.9°C 50.0°F10.0°C 84% - N N -- 29.97 in1014.9 mb 0.00 in0.0 mm 0.00 in0.0 mm 0.03 in0.8 mm
05:20 PM 55.2°F12.9°C 50.0°F10.0°C 83% - N N -- 29.97 in1014.9 mb 0.00 in0.0 mm 0.00 in0.0 mm 0.03 in0.8 mm
05:10 PM 55.2°F12.9°C 50.0°F10.0°C 83% - N N -- 29.97 in1014.9 mb 0.00 in0.0 mm 0.00 in0.0 mm 0.03 in0.8 mm
05:00 PM 55.2°F12.9°C 50.0°F10.0°C 83% - N N -- 29.97 in1014.9 mb 0.00 in0.0 mm 0.00 in0.0 mm 0.03 in0.8 mm
04:50 PM 55.4°F13.0°C 50.0°F10.0°C 82% - N N -- 29.97 in1014.9 mb 0.00 in0.0 mm 0.00 in0.0 mm 0.03 in0.8 mm
04:40 PM 55.4°F13.0°C 50.0°F10.0°C 82% - N N -- 29.97 in1014.9 mb 0.00 in0.0 mm 0.00 in0.0 mm 0.03 in0.8 mm
04:30 PM 55.8°F13.2°C 50.0°F10.0°C 81% - N N -- 29.97 in1014.9 mb 0.00 in0.0 mm 0.00 in0.0 mm 0.03 in0.8 mm
04:20 PM 56.1°F13.4°C 50.0°F10.0°C 80% - N N -- 29.97 in1014.9 mb 0.00 in0.0 mm 0.00 in0.0 mm 0.03 in0.8 mm
04:10 PM 56.3°F13.5°C 50.0°F10.0°C 79% - N N -- 29.97 in1014.9 mb 0.00 in0.0 mm 0.00 in0.0 mm 0.03 in0.8 mm
04:00 PM 56.5°F13.6°C 50.0°F10.0°C 78% - N N -- 29.97 in1014.9 mb 0.00 in0.0 mm 0.00 in0.0 mm 0.03 in0.8 mm
03:50 PM 56.8°F13.8°C 50.0°F10.0°C 77% - N N -- 29.97 in1014.9 mb 0.00 in0.0 mm 0.00 in0.0 mm 0.03 in0.8 mm
03:40 PM 57.2°F14.0°C 50.0°F10.0°C 76% - N N -- 29.97 in1014.9 mb 0.00 in0.0 mm 0.00 in0.0 mm 0.03 in0.8 mm
03:30 PM 57.4°F14.1°C 50.0°F10.0°C 76% - N N -- 29.97 in1014.9 mb 0.00 in0.0 mm 0.00 in0.0 mm 0.03 in0.8 mm
03:20 PM 57.4°F14.1°C 50.0°F10.0°C 76% - N N -- 29.97 in1014.9 mb 0.00 in0.0 mm 0.00 in0.0 mm 0.03 in0.8 mm
03:10 PM 57.4°F14.1°C 50.0°F10.0°C 76% - N N -- 29.97 in1014.9 mb 0.00 in0.0 mm 0.00 in0.0 mm 0.03 in0.8 mm
03:00 PM 57.2°F14.0°C 49.0°F9.4°C 76% - N N -- 29.97 in1014.9 mb 0.00 in0.0 mm 0.00 in0.0 mm 0.03 in0.8 mm
02:50 PM 57.2°F14.0°C 49.0°F9.4°C 75% - N N -- 29.97 in1014.9 mb 0.00 in0.0 mm 0.00 in0.0 mm 0.03 in0.8 mm
02:40 PM 57.2°F14.0°C 49.0°F9.4°C 75% - N N -- 29.97 in1014.9 mb 0.00 in0.0 mm 0.00 in0.0 mm 0.03 in0.8 mm
02:30 PM 57.2°F14.0°C 49.0°F9.4°C 74% - N N -- 29.97 in1014.9 mb 0.00 in0.0 mm 0.00 in0.0 mm 0.03 in0.8 mm
02:20 PM 57.2°F14.0°C 49.0°F9.4°C 74% - N N -- 29.97 in1014.9 mb 0.00 in0.0 mm 0.00 in0.0 mm 0.03 in0.8 mm
02:10 PM 57.4°F14.1°C 49.0°F9.4°C 73% - N N -- 29.97 in1014.9 mb 0.00 in0.0 mm 0.00 in0.0 mm 0.03 in0.8 mm
02:00 PM 57.6°F14.2°C 49.0°F9.4°C 73% - N N -- 29.97 in1014.9 mb 0.00 in0.0 mm 0.00 in0.0 mm 0.03 in0.8 mm
01:50 PM 57.6°F14.2°C 49.0°F9.4°C 73% - N N -- 29.97 in1014.9 mb 0.00 in0.0 mm 0.00 in0.0 mm 0.03 in0.8 mm
01:40 PM 57.4°F14.1°C 49.0°F9.4°C 73% - N N -- 29.98 in1015.2 mb 0.00 in0.0 mm 0.00 in0.0 mm 0.03 in0.8 mm
01:30 PM 57.2°F14.0°C 48.0°F8.9°C 72% - N N -- 29.97 in1014.9 mb 0.00 in0.0 mm 0.00 in0.0 mm 0.03 in0.8 mm
01:20 PM 57.4°F14.1°C 48.0°F8.9°C 71% - N N -- 29.97 in1014.9 mb 0.00 in0.0 mm 0.00 in0.0 mm 0.03 in0.8 mm
01:10 PM 57.6°F14.2°C 48.0°F8.9°C 71% - N N -- 29.97 in1014.9 mb 0.00 in0.0 mm 0.00 in0.0 mm 0.03 in0.8 mm
01:00 PM 57.7°F14.3°C 48.0°F8.9°C 71% - N N -- 29.97 in1014.9 mb 0.00 in0.0 mm 0.00 in0.0 mm 0.03 in0.8 mm
12:50 PM 57.9°F14.4°C 49.0°F9.4°C 71% - N N -- 29.97 in1014.9 mb 0.00 in0.0 mm 0.00 in0.0 mm 0.03 in0.8 mm
12:40 PM 58.1°F14.5°C 48.0°F8.9°C 70% - N N -- 29.97 in1014.9 mb 0.00 in0.0 mm 0.00 in0.0 mm 0.03 in0.8 mm
12:30 PM 58.3°F14.6°C 49.0°F9.4°C 70% - N N -- 29.97 in1014.9 mb 0.00 in0.0 mm 0.00 in0.0 mm 0.03 in0.8 mm
12:20 PM 58.3°F14.6°C 49.0°F9.4°C 70% - N N -- 29.97 in1014.9 mb 0.00 in0.0 mm 0.00 in0.0 mm 0.03 in0.8 mm
12:10 PM 58.1°F14.5°C 48.0°F8.9°C 70% - N N -- 29.97 in1014.9 mb 0.00 in0.0 mm 0.00 in0.0 mm 0.03 in0.8 mm
12:00 PM 58.3°F14.6°C 49.0°F9.4°C 71% - N N -- 29.97 in1014.9 mb 0.00 in0.0 mm 0.00 in0.0 mm 0.03 in0.8 mm
11:50 AM 58.1°F14.5°C 48.0°F8.9°C 70% - N N -- 29.97 in1014.9 mb 0.00 in0.0 mm 0.00 in0.0 mm 0.03 in0.8 mm
11:40 AM 58.1°F14.5°C 49.0°F9.4°C 71% - N N -- 29.97 in1014.9 mb 0.00 in0.0 mm 0.00 in0.0 mm 0.03 in0.8 mm
11:30 AM 58.3°F14.6°C 49.0°F9.4°C 71% - N N -- 29.97 in1014.9 mb 0.00 in0.0 mm 0.00 in0.0 mm 0.03 in0.8 mm
11:20 AM 58.5°F14.7°C 49.0°F9.4°C 71% - N N -- 29.97 in1014.9 mb 0.00 in0.0 mm 0.00 in0.0 mm 0.03 in0.8 mm
11:10 AM 58.3°F14.6°C 49.0°F9.4°C 72% - N N -- 29.98 in1015.2 mb 0.00 in0.0 mm 0.00 in0.0 mm 0.03 in0.8 mm
11:00 AM 58.3°F14.6°C 49.0°F9.4°C 72% - N N -- 29.98 in1015.2 mb 0.00 in0.0 mm 0.00 in0.0 mm 0.03 in0.8 mm
10:50 AM 58.1°F14.5°C 50.0°F10.0°C 73% - N N -- 29.98 in1015.2 mb 0.00 in0.0 mm 0.00 in0.0 mm 0.03 in0.8 mm
10:40 AM 57.9°F14.4°C 49.0°F9.4°C 74% - N N -- 29.98 in1015.2 mb 0.00 in0.0 mm 0.00 in0.0 mm 0.03 in0.8 mm
10:30 AM 57.6°F14.2°C 50.0°F10.0°C 75% - N N -- 29.98 in1015.2 mb 0.00 in0.0 mm 0.00 in0.0 mm 0.03 in0.8 mm
10:20 AM 57.0°F13.9°C 49.0°F9.4°C 75% - N N -- 29.98 in1015.2 mb 0.00 in0.0 mm 0.00 in0.0 mm 0.03 in0.8 mm
10:10 AM 56.5°F13.6°C 49.0°F9.4°C 76% - N N -- 29.98 in1015.2 mb 0.00 in0.0 mm 0.00 in0.0 mm 0.03 in0.8 mm
10:00 AM 56.1°F13.4°C 48.0°F8.9°C 76% - N N -- 29.98 in1015.2 mb 0.00 in0.0 mm 0.00 in0.0 mm 0.03 in0.8 mm
09:50 AM 55.8°F13.2°C 48.0°F8.9°C 76% - N N -- 29.98 in1015.2 mb 0.00 in0.0 mm 0.00 in0.0 mm 0.03 in0.8 mm
09:40 AM 55.6°F13.1°C 48.0°F8.9°C 75% - N N -- 29.99 in1015.6 mb 0.00 in0.0 mm 0.00 in0.0 mm 0.03 in0.8 mm
09:30 AM 55.2°F12.9°C 48.0°F8.9°C 76% - N N -- 29.99 in1015.6 mb 0.00 in0.0 mm 0.00 in0.0 mm 0.03 in0.8 mm
09:20 AM 54.7°F12.6°C 47.0°F8.3°C 75% - N N -- 29.99 in1015.6 mb 0.00 in0.0 mm 0.00 in0.0 mm 0.03 in0.8 mm
09:10 AM 54.3°F12.4°C 47.0°F8.3°C 75% - N N -- 29.99 in1015.6 mb 0.00 in0.0 mm 0.00 in0.0 mm 0.03 in0.8 mm
09:00 AM 54.0°F12.2°C 46.0°F7.8°C 75% - N N -- 29.99 in1015.6 mb 0.00 in0.0 mm 0.00 in0.0 mm 0.03 in0.8 mm
08:50 AM 53.8°F12.1°C 46.0°F7.8°C 75% - N N -- 30.00 in1015.9 mb 0.00 in0.0 mm 0.00 in0.0 mm 0.03 in0.8 mm
08:40 AM 53.6°F12.0°C 46.0°F7.8°C 75% - N N -- 30.00 in1015.9 mb 0.00 in0.0 mm 0.00 in0.0 mm 0.03 in0.8 mm
08:30 AM 53.4°F11.9°C 46.0°F7.8°C 75% - N N -- 30.00 in1015.9 mb 0.00 in0.0 mm 0.00 in0.0 mm 0.03 in0.8 mm
08:20 AM 53.2°F11.8°C 45.0°F7.2°C 75% - N N -- 30.00 in1015.9 mb 0.00 in0.0 mm 0.00 in0.0 mm 0.03 in0.8 mm
08:10 AM 53.2°F11.8°C 45.0°F7.2°C 75% - N N -- 30.00 in1015.9 mb 0.01 in0.3 mm 0.00 in0.0 mm 0.03 in0.8 mm
08:00 AM 53.2°F11.8°C 45.0°F7.2°C 74% - N N -- 30.00 in1015.9 mb 0.01 in0.3 mm 0.00 in0.0 mm 0.03 in0.8 mm
07:50 AM 53.1°F11.7°C 45.0°F7.2°C 74% - N N -- 30.00 in1015.9 mb 0.02 in0.5 mm 0.00 in0.0 mm 0.03 in0.8 mm
07:40 AM 53.1°F11.7°C 45.0°F7.2°C 74% - N N -- 30.00 in1015.9 mb 0.02 in0.5 mm 0.00 in0.0 mm 0.03 in0.8 mm
07:30 AM 53.1°F11.7°C 45.0°F7.2°C 74% - N N -- 29.99 in1015.6 mb 0.02 in0.5 mm 0.00 in0.0 mm 0.03 in0.8 mm
07:20 AM 53.1°F11.7°C 45.0°F7.2°C 73% - N N -- 29.99 in1015.6 mb 0.02 in0.5 mm 0.06 in1.5 mm 0.03 in0.8 mm
07:10 AM 52.9°F11.6°C 44.0°F6.7°C 72% - N N -- 29.99 in1015.6 mb 0.01 in0.3 mm 0.00 in0.0 mm 0.02 in0.5 mm
07:00 AM 53.2°F11.8°C 44.0°F6.7°C 71% - N N -- 29.98 in1015.2 mb 0.01 in0.3 mm 0.01 in0.3 mm 0.02 in0.5 mm
06:50 AM 53.4°F11.9°C 44.0°F6.7°C 70% - N N -- 29.98 in1015.2 mb 0.00 in0.0 mm 0.00 in0.0 mm 0.01 in0.3 mm
06:40 AM 53.6°F12.0°C 44.0°F6.7°C 69% - N N -- 29.98 in1015.2 mb 0.00 in0.0 mm 0.00 in0.0 mm 0.01 in0.3 mm
06:30 AM 53.8°F12.1°C 43.0°F6.1°C 68% - N N -- 29.98 in1015.2 mb 0.01 in0.3 mm 0.00 in0.0 mm 0.01 in0.3 mm
06:20 AM 54.3°F12.4°C 43.0°F6.1°C 66% - N N -- 29.97 in1014.9 mb 0.01 in0.3 mm 0.00 in0.0 mm 0.01 in0.3 mm
06:10 AM 54.7°F12.6°C 43.0°F6.1°C 64% - N N -- 29.97 in1014.9 mb 0.01 in0.3 mm 0.00 in0.0 mm 0.01 in0.3 mm
06:00 AM 54.9°F12.7°C 42.0°F5.6°C 63% - N N -- 29.97 in1014.9 mb 0.01 in0.3 mm 0.00 in0.0 mm 0.01 in0.3 mm
05:50 AM 54.9°F12.7°C 42.0°F5.6°C 62% - N N -- 29.97 in1014.9 mb 0.01 in0.3 mm 0.00 in0.0 mm 0.01 in0.3 mm
05:40 AM 54.9°F12.7°C 42.0°F5.6°C 63% - N N -- 29.97 in1014.9 mb 0.01 in0.3 mm 0.06 in1.5 mm 0.01 in0.3 mm
05:30 AM 55.2°F12.9°C 42.0°F5.6°C 61% - N N -- 29.97 in1014.9 mb 0.00 in0.0 mm 0.00 in0.0 mm 0.00 in0.0 mm
05:20 AM 55.6°F13.1°C 42.0°F5.6°C 60% - N N -- 29.97 in1014.9 mb 0.00 in0.0 mm 0.00 in0.0 mm 0.00 in0.0 mm
05:10 AM 55.8°F13.2°C 42.0°F5.6°C 59% - N N -- 29.97 in1014.9 mb 0.00 in0.0 mm 0.00 in0.0 mm 0.00 in0.0 mm
05:00 AM 55.6°F13.1°C 42.0°F5.6°C 60% - N N -- 29.97 in1014.9 mb 0.00 in0.0 mm 0.00 in0.0 mm 0.00 in0.0 mm
04:50 AM 55.8°F13.2°C 42.0°F5.6°C 59% - N N -- 29.97 in1014.9 mb 0.00 in0.0 mm 0.00 in0.0 mm 0.00 in0.0 mm
04:40 AM 56.3°F13.5°C 41.0°F5.0°C 57% - N N -- 29.97 in1014.9 mb 0.00 in0.0 mm 0.00 in0.0 mm 0.00 in0.0 mm
04:30 AM 56.5°F13.6°C 41.0°F5.0°C 56% - N N -- 29.97 in1014.9 mb 0.00 in0.0 mm 0.00 in0.0 mm 0.00 in0.0 mm
04:20 AM 56.7°F13.7°C 41.0°F5.0°C 55% - N N -- 29.97 in1014.9 mb 0.00 in0.0 mm 0.00 in0.0 mm 0.00 in0.0 mm
04:10 AM 56.8°F13.8°C 41.0°F5.0°C 55% - N N -- 29.97 in1014.9 mb 0.00 in0.0 mm 0.00 in0.0 mm 0.00 in0.0 mm
04:00 AM 57.0°F13.9°C 40.0°F4.4°C 54% - N N -- 29.97 in1014.9 mb 0.00 in0.0 mm 0.00 in0.0 mm 0.00 in0.0 mm
03:50 AM 57.9°F14.4°C 40.0°F4.4°C 52% - N N -- 29.97 in1014.9 mb 0.00 in0.0 mm 0.00 in0.0 mm 0.00 in0.0 mm
03:40 AM 58.8°F14.9°C 39.0°F3.9°C 48% - N N -- 29.97 in1014.9 mb 0.00 in0.0 mm 0.00 in0.0 mm 0.00 in0.0 mm
03:30 AM 59.4°F15.2°C 38.0°F3.3°C 46% - N N -- 29.97 in1014.9 mb 0.00 in0.0 mm 0.00 in0.0 mm 0.00 in0.0 mm
03:20 AM 59.5°F15.3°C 38.0°F3.3°C 44% - N N -- 29.97 in1014.9 mb 0.00 in0.0 mm 0.00 in0.0 mm 0.00 in0.0 mm
03:10 AM 59.4°F15.2°C 38.0°F3.3°C 45% - N N -- 29.97 in1014.9 mb 0.00 in0.0 mm 0.00 in0.0 mm 0.00 in0.0 mm
03:00 AM 59.4°F15.2°C 38.0°F3.3°C 45% - N N -- 29.97 in1014.9 mb 0.00 in0.0 mm 0.00 in0.0 mm 0.00 in0.0 mm
02:50 AM 59.2°F15.1°C 38.0°F3.3°C 45% - N N -- 29.97 in1014.9 mb 0.00 in0.0 mm 0.00 in0.0 mm 0.00 in0.0 mm
02:40 AM 59.2°F15.1°C 38.0°F3.3°C 46% - N N -- 29.96 in1014.6 mb 0.00 in0.0 mm 0.00 in0.0 mm 0.00 in0.0 mm
02:30 AM 59.2°F15.1°C 38.0°F3.3°C 46% - N N -- 29.96 in1014.6 mb 0.00 in0.0 mm 0.00 in0.0 mm 0.00 in0.0 mm
02:20 AM 59.2°F15.1°C 38.0°F3.3°C 45% - N N -- 29.96 in1014.6 mb 0.00 in0.0 mm 0.00 in0.0 mm 0.00 in0.0 mm
02:10 AM 59.0°F15.0°C 38.0°F3.3°C 45% - N N -- 29.96 in1014.6 mb 0.00 in0.0 mm 0.00 in0.0 mm 0.00 in0.0 mm
02:00 AM 58.8°F14.9°C 38.0°F3.3°C 46% - N N -- 29.97 in1014.9 mb 0.00 in0.0 mm 0.00 in0.0 mm 0.00 in0.0 mm
01:50 AM 58.8°F14.9°C 38.0°F3.3°C 46% - N N -- 29.97 in1014.9 mb 0.00 in0.0 mm 0.00 in0.0 mm 0.00 in0.0 mm
01:40 AM 58.8°F14.9°C 38.0°F3.3°C 46% - N N -- 29.97 in1014.9 mb 0.00 in0.0 mm 0.00 in0.0 mm 0.00 in0.0 mm
01:30 AM 58.8°F14.9°C 38.0°F3.3°C 46% - N N -- 29.97 in1014.9 mb 0.00 in0.0 mm 0.00 in0.0 mm 0.00 in0.0 mm
01:20 AM 58.8°F14.9°C 38.0°F3.3°C 45% - N N -- 29.97 in1014.9 mb 0.00 in0.0 mm 0.00 in0.0 mm 0.00 in0.0 mm
01:10 AM 58.8°F14.9°C 38.0°F3.3°C 46% - N N -- 29.97 in1014.9 mb 0.00 in0.0 mm 0.00 in0.0 mm 0.00 in0.0 mm
01:00 AM 58.6°F14.8°C 38.0°F3.3°C 46% - N N -- 29.98 in1015.2 mb 0.00 in0.0 mm 0.00 in0.0 mm 0.00 in0.0 mm
12:50 AM 58.5°F14.7°C 38.0°F3.3°C 46% - N N -- 29.98 in1015.2 mb 0.00 in0.0 mm 0.00 in0.0 mm 0.00 in0.0 mm
12:40 AM 58.5°F14.7°C 38.0°F3.3°C 46% - N N -- 29.98 in1015.2 mb 0.00 in0.0 mm 0.00 in0.0 mm 0.00 in0.0 mm
12:30 AM 58.6°F14.8°C 38.0°F3.3°C 46% - N N -- 29.98 in1015.2 mb 0.00 in0.0 mm 0.00 in0.0 mm 0.00 in0.0 mm
12:20 AM 58.6°F14.8°C 38.0°F3.3°C 46% - N N -- 29.98 in1015.2 mb 0.00 in0.0 mm 0.00 in0.0 mm 0.00 in0.0 mm
12:10 AM 59.0°F15.0°C 38.0°F3.3°C 46% - N N -- 29.98 in1015.2 mb 0.00 in0.0 mm 0.00 in0.0 mm 0.00 in0.0 mm
12:00 AM 59.0°F15.0°C 38.0°F3.3°C 46% - N N -- 29.98 in1015.2 mb 0.00 in0.0 mm 0.00 in0.0 mm 0.00 in0.0 mm